This is the latest recevied weather packets stored in our database for station/object OE9FWV-10. If no packets are shown the sender has not sent any weather packets the latest 10 day(s).
| Time | Temp. | Humidity | Pressure | Rain* | Wind** | Luminosity | Snow |
|---|---|---|---|---|---|---|---|
| 1778146106 | 25° C | 27% | 1017.9 hPa | - | - | - | - |
| 1778145206 | 24.44° C | 27% | 1017.9 hPa | - | - | - | - |
| 1778144306 | 24.44° C | 28% | 1017.8 hPa | - | - | - | - |
| 1778143406 | 24.44° C | 28% | 1017.8 hPa | - | - | - | - |
| 1778142506 | 24.44° C | 28% | 1017.8 hPa | - | - | - | - |
| 1778141606 | 23.89° C | 28% | 1017.8 hPa | - | - | - | - |
| 1778140706 | 23.89° C | 28% | 1017.9 hPa | - | - | - | - |
| 1778139806 | 23.89° C | 28% | 1017.7 hPa | - | - | - | - |
| 1778138906 | 23.89° C | 28% | 1017.8 hPa | - | - | - | - |
| 1778138006 | 23.89° C | 28% | 1017.8 hPa | - | - | - | - |
| 1778137106 | 23.89° C | 28% | 1017.7 hPa | - | - | - | - |
| 1778136206 | 23.33° C | 29% | 1017.6 hPa | - | - | - | - |
| 1778135306 | 23.33° C | 29% | 1017.5 hPa | - | - | - | - |
| 1778134405 | 23.89° C | 28% | 1017.4 hPa | - | - | - | - |
| 1778133505 | 23.33° C | 29% | 1017.3 hPa | - | - | - | - |
| 1778132605 | 23.33° C | 28% | 1017.2 hPa | - | - | - | - |
| 1778131705 | 23.33° C | 29% | 1017.1 hPa | - | - | - | - |
| 1778130805 | 23.33° C | 29% | 1016.9 hPa | - | - | - | - |
| 1778129905 | 23.33° C | 29% | 1016.7 hPa | - | - | - | - |
| 1778129005 | 23.33° C | 29% | 1016.6 hPa | - | - | - | - |
| 1778128105 | 23.33° C | 29% | 1016.5 hPa | - | - | - | - |
| 1778127205 | 23.33° C | 29% | 1016.3 hPa | - | - | - | - |
| 1778126305 | 23.33° C | 29% | 1016.2 hPa | - | - | - | - |
| 1778124505 | 23.33° C | 29% | 1016.2 hPa | - | - | - | - |
| 1778097502 | 24.44° C | 28% | 1014.4 hPa | - | - | - | - |
* Rain since midnight (hover to see other rain measurements)
** Current wind speed in m/s (hover to see current wind gust speed)